createdAt,value
2023-11-02T00:01:54.993Z,1.42
2023-11-02T00:04:24.864Z,2.17
2023-11-02T00:06:52.829Z,2.97
2023-11-02T00:09:41.578Z,2.10
2023-11-02T00:12:13.300Z,4.40
2023-11-02T00:14:53.539Z,2.35
2023-11-02T00:17:54.642Z,1.63
2023-11-02T00:20:32.265Z,4.55
2023-11-02T00:23:00.123Z,2.40
2023-11-02T00:25:44.922Z,2.88
2023-11-02T00:28:14.383Z,2.40
2023-11-02T00:30:46.887Z,2.63
2023-11-02T00:33:15.643Z,2.00
2023-11-02T00:35:50.386Z,4.47
2023-11-02T00:38:18.901Z,1.73
2023-11-02T00:40:47.304Z,2.97
2023-11-02T00:43:16.701Z,3.38
2023-11-02T00:45:44.522Z,3.33
2023-11-02T00:48:14.501Z,2.20
2023-11-02T00:50:57.159Z,2.92
2023-11-02T00:53:27.778Z,3.92
2023-11-02T00:55:55.657Z,2.50
2023-11-02T00:58:29.399Z,5.78
2023-11-02T01:01:06.497Z,3.78
2023-11-02T01:03:34.928Z,2.67
2023-11-02T01:06:03.242Z,2.88
2023-11-02T01:08:34.499Z,2.05
2023-11-02T01:11:02.905Z,1.85
2023-11-02T01:13:34.599Z,3.53
2023-11-02T01:16:07.631Z,2.70
2023-11-02T01:18:35.800Z,4.70
2023-11-02T01:21:06.562Z,3.15
2023-11-02T01:23:34.853Z,3.53
2023-11-02T01:26:04.405Z,1.92
2023-11-02T01:28:50.051Z,1.88
2023-11-02T01:31:19.144Z,2.10
2023-11-02T01:33:55.854Z,1.90
2023-11-02T01:38:58.536Z,1.55
2023-11-02T01:41:33.505Z,2.17
2023-11-02T01:44:05.854Z,2.38
2023-11-02T01:46:37.579Z,2.70
2023-11-02T01:49:09.379Z,3.42
2023-11-02T01:51:41.569Z,4.45
2023-11-02T01:54:14.411Z,4.03
2023-11-02T01:56:49.420Z,2.15
2023-11-02T02:01:50.320Z,4.78
2023-11-02T02:04:22.020Z,4.55
2023-11-02T02:06:59.369Z,5.80
2023-11-02T02:09:34.461Z,5.38
2023-11-02T02:12:06.759Z,4.30
2023-11-02T02:14:42.489Z,5.65
2023-11-02T02:17:17.129Z,3.00
2023-11-02T02:19:52.966Z,2.30
2023-11-02T02:22:26.344Z,2.17
2023-11-02T02:24:58.633Z,1.70
2023-11-02T02:27:53.627Z,1.80
2023-11-02T02:30:33.387Z,4.05
2023-11-02T02:33:25.125Z,1.33
2023-11-02T02:38:26.349Z,1.67
2023-11-02T02:41:00.124Z,2.58
2023-11-02T02:43:28.410Z,1.63
2023-11-02T02:45:58.536Z,1.90
2023-11-02T02:48:27.701Z,1.75
2023-11-02T02:50:59.010Z,1.38
2023-11-02T02:53:30.237Z,3.25
2023-11-02T02:56:00.988Z,1.55
2023-11-02T02:58:29.000Z,10.23
2023-11-02T03:00:56.858Z,2.75
2023-11-02T03:03:27.484Z,1.83
2023-11-02T03:05:57.101Z,2.63
2023-11-02T03:08:25.233Z,2.17
2023-11-02T03:10:54.664Z,1.42
2023-11-02T03:13:25.149Z,3.40
2023-11-02T03:15:56.618Z,4.43
2023-11-02T03:18:32.108Z,2.17
2023-11-02T03:21:02.215Z,2.35
2023-11-02T03:23:35.701Z,1.23
2023-11-02T03:26:11.531Z,1.63
2023-11-02T03:28:42.990Z,1.40
2023-11-02T03:31:16.892Z,2.08
2023-11-02T03:33:47.698Z,1.20
2023-11-02T03:36:19.450Z,2.40
2023-11-02T03:38:55.479Z,2.22
2023-11-02T03:41:30.712Z,2.78
2023-11-02T03:44:03.338Z,1.73
2023-11-02T03:46:38.509Z,2.35
2023-11-02T03:49:13.410Z,4.30
2023-11-02T03:51:45.120Z,0.75
2023-11-02T03:54:17.546Z,0.22
2023-11-02T03:56:51.920Z,3.20
2023-11-02T03:59:22.563Z,0.57
2023-11-02T04:01:52.627Z,0.73
2023-11-02T04:04:24.420Z,0.77
2023-11-02T04:06:54.108Z,0.20
2023-11-02T04:09:23.205Z,1.95
2023-11-02T04:11:59.375Z,0.25
2023-11-02T04:14:27.621Z,0.38
2023-11-02T04:16:55.562Z,0.20
2023-11-02T04:19:23.370Z,0.70
2023-11-02T04:21:53.482Z,3.30
2023-11-02T04:24:21.231Z,2.17
2023-11-02T04:26:49.064Z,1.00
2023-11-02T04:29:18.184Z,0.20
2023-11-02T04:31:45.949Z,0.20
2023-11-02T04:34:13.878Z,0.55
2023-11-02T04:36:41.692Z,0.10
2023-11-02T04:39:12.597Z,0.30
2023-11-02T04:41:40.351Z,0.28
2023-11-02T04:44:10.211Z,0.38
2023-11-02T04:46:39.339Z,0.20
2023-11-02T04:49:07.123Z,0.20
2023-11-02T04:51:34.845Z,0.52
2023-11-02T04:54:02.752Z,0.55
2023-11-02T04:56:30.512Z,2.10
2023-11-02T04:59:00.619Z,1.48
2023-11-02T05:01:28.522Z,0.20
2023-11-02T05:04:01.522Z,0.30
2023-11-02T05:06:29.877Z,0.40
2023-11-02T05:09:01.008Z,0.47
2023-11-02T05:11:29.084Z,0.35
2023-11-02T05:13:56.776Z,0.20
2023-11-02T05:16:24.545Z,0.20
2023-11-02T05:18:54.660Z,0.45
2023-11-02T05:21:23.845Z,1.15
2023-11-02T05:23:51.552Z,0.30
2023-11-02T05:26:19.318Z,0.30
2023-11-02T05:28:47.132Z,0.22
2023-11-02T05:31:16.904Z,0.20
2023-11-02T05:33:44.808Z,1.95
2023-11-02T05:36:12.797Z,1.00
2023-11-02T05:38:41.922Z,0.28
2023-11-02T05:41:09.754Z,1.65
2023-11-02T05:43:37.530Z,2.88
2023-11-02T05:46:05.618Z,0.28
2023-11-02T05:48:33.401Z,1.50
2023-11-02T05:51:03.973Z,0.68
2023-11-02T05:53:31.809Z,0.60
2023-11-02T05:56:01.092Z,1.05
2023-11-02T05:58:31.148Z,0.60
2023-11-02T06:00:58.983Z,2.58
2023-11-02T06:03:27.844Z,0.80
2023-11-02T06:05:55.823Z,1.02
2023-11-02T06:08:23.908Z,0.80
2023-11-02T06:10:51.636Z,1.58
2023-11-02T06:13:20.762Z,0.30
2023-11-02T06:15:48.539Z,0.40
2023-11-02T06:18:18.711Z,0.52
2023-11-02T06:20:46.498Z,0.50
2023-11-02T06:23:14.272Z,0.82
2023-11-02T06:25:42.115Z,1.00
2023-11-02T06:28:09.928Z,1.65
2023-11-02T06:30:41.440Z,2.53
2023-11-02T06:33:11.988Z,0.50
2023-11-02T06:35:40.032Z,1.40
2023-11-02T06:38:07.826Z,0.35
2023-11-02T06:40:35.569Z,1.23
2023-11-02T06:43:05.246Z,0.30
2023-11-02T06:45:33.961Z,0.22
2023-11-02T06:48:03.501Z,0.52
2023-11-02T06:50:31.265Z,0.63
2023-11-02T06:52:59.081Z,0.65
2023-11-02T06:55:26.862Z,0.50
2023-11-02T06:57:54.600Z,0.73
2023-11-02T07:00:24.075Z,1.60
2023-11-02T07:02:54.683Z,0.63
2023-11-02T07:05:26.955Z,1.35
2023-11-02T07:07:56.401Z,2.28
2023-11-02T07:10:24.279Z,0.65
2023-11-02T07:12:55.230Z,0.98
2023-11-02T07:15:25.343Z,0.32
2023-11-02T07:17:53.418Z,1.02
2023-11-02T07:20:23.542Z,0.98
2023-11-02T07:22:54.717Z,1.23
2023-11-02T07:25:24.596Z,1.33
2023-11-02T07:27:52.784Z,0.68
2023-11-02T07:30:20.660Z,2.20
2023-11-02T07:32:48.671Z,2.75
2023-11-02T07:35:16.527Z,2.13
2023-11-02T07:37:45.335Z,0.85
2023-11-02T07:40:14.655Z,0.55
2023-11-02T07:42:42.637Z,1.08
2023-11-02T07:45:12.851Z,0.55
2023-11-02T07:47:40.641Z,0.88
2023-11-02T07:50:11.217Z,0.20
2023-11-02T07:52:42.638Z,0.60
2023-11-02T07:55:11.241Z,0.20
2023-11-02T07:57:40.342Z,1.85
2023-11-02T08:00:11.380Z,0.32
2023-11-02T08:02:44.845Z,1.17
2023-11-02T08:05:12.623Z,1.30
2023-11-02T08:07:40.362Z,0.30
2023-11-02T08:10:09.047Z,2.80
2023-11-02T08:12:36.849Z,2.05
2023-11-02T08:15:06.465Z,0.70
2023-11-02T08:17:36.757Z,0.55
2023-11-02T08:20:06.276Z,3.00
2023-11-02T08:22:34.007Z,0.20
2023-11-02T08:25:01.793Z,1.25
2023-11-02T08:27:29.993Z,0.57
2023-11-02T08:30:00.206Z,0.50
2023-11-02T08:32:31.806Z,1.02
2023-11-02T08:35:01.199Z,1.67
2023-11-02T08:37:31.344Z,0.10
2023-11-02T08:40:00.671Z,0.77
2023-11-02T08:42:29.201Z,0.63
2023-11-02T08:44:57.174Z,1.48
2023-11-02T08:47:25.520Z,0.30
2023-11-02T08:49:55.373Z,0.20
2023-11-02T08:52:23.538Z,0.20
2023-11-02T08:54:51.751Z,0.30
2023-11-02T08:57:19.584Z,0.20
2023-11-02T08:59:49.565Z,0.40
2023-11-02T09:02:18.101Z,0.25
2023-11-02T09:04:45.940Z,1.30
2023-11-02T09:07:15.083Z,0.20
2023-11-02T09:09:42.907Z,0.43
2023-11-02T09:12:11.829Z,0.17
2023-11-02T09:14:39.654Z,0.13
2023-11-02T09:17:07.596Z,0.95
2023-11-02T09:19:35.596Z,0.20
2023-11-02T09:22:05.319Z,0.20
2023-11-02T09:24:34.502Z,0.40
2023-11-02T09:27:02.317Z,0.98
2023-11-02T09:29:32.161Z,0.20
2023-11-02T09:32:04.139Z,2.63
2023-11-02T09:34:35.364Z,2.33
2023-11-02T09:37:03.352Z,2.97
2023-11-02T09:39:34.633Z,2.58
2023-11-02T09:42:03.376Z,3.15
2023-11-02T09:44:35.425Z,2.35
2023-11-02T09:47:05.728Z,3.72
2023-11-02T09:49:33.646Z,3.40
2023-11-02T09:52:04.904Z,1.83
2023-11-02T09:54:42.597Z,4.65
2023-11-02T09:57:16.085Z,4.60
2023-11-02T09:59:46.097Z,2.22
2023-11-02T10:02:14.808Z,2.42
2023-11-02T10:04:44.149Z,1.58
2023-11-02T10:07:14.438Z,4.88
2023-11-02T10:09:44.434Z,2.80
2023-11-02T10:14:42.598Z,2.03
2023-11-02T10:17:12.691Z,6.18
2023-11-02T10:19:40.531Z,15.27
2023-11-02T10:22:10.544Z,6.38
2023-11-02T10:24:38.488Z,4.78
2023-11-02T10:27:08.028Z,10.32
2023-11-02T10:29:36.472Z,9.98
2023-11-02T10:32:06.998Z,8.23
2023-11-02T10:34:38.758Z,4.90
2023-11-02T10:37:08.733Z,19.90
2023-11-02T10:39:37.254Z,9.43
2023-11-02T10:42:05.492Z,32.42
2023-11-02T10:44:37.486Z,28.30
2023-11-02T10:47:06.499Z,7.88
2023-11-02T10:49:35.636Z,3.33
2023-11-02T10:52:06.861Z,14.95
2023-11-02T10:54:40.290Z,7.97
2023-11-02T10:57:16.444Z,4.65
2023-11-02T10:59:46.098Z,5.28
2023-11-02T11:02:14.195Z,6.25
2023-11-02T11:04:42.268Z,6.78
2023-11-02T11:07:10.368Z,9.65
2023-11-02T11:09:38.780Z,7.35
2023-11-02T11:12:07.260Z,6.78
2023-11-02T11:14:36.655Z,3.83
2023-11-02T11:17:06.176Z,5.90
2023-11-02T11:19:36.975Z,7.28
2023-11-02T11:22:12.320Z,4.10
2023-11-02T11:24:40.631Z,4.35
2023-11-02T11:27:08.626Z,1.83
2023-11-02T11:29:37.237Z,1.42
2023-11-02T11:32:07.219Z,0.63
2023-11-02T11:34:53.846Z,0.90
2023-11-02T11:37:38.631Z,0.13
2023-11-02T11:40:11.475Z,1.88
2023-11-02T11:42:59.504Z,2.17
2023-11-02T11:45:28.570Z,0.45
2023-11-02T11:48:00.311Z,1.98
2023-11-02T11:50:38.150Z,3.95
2023-11-02T11:53:08.415Z,1.95
2023-11-02T11:55:37.358Z,6.35
2023-11-02T11:58:10.016Z,2.92
2023-11-02T12:00:55.766Z,0.47
2023-11-02T12:03:45.767Z,1.02
2023-11-02T12:06:15.136Z,0.70
2023-11-02T12:08:46.468Z,0.50
2023-11-02T12:11:15.024Z,4.20
2023-11-02T12:13:46.630Z,3.75
2023-11-02T12:16:14.492Z,2.90
2023-11-02T12:18:44.239Z,4.32
2023-11-02T12:21:12.686Z,3.78
2023-11-02T12:23:45.384Z,0.82
2023-11-02T12:26:13.363Z,0.93
2023-11-02T12:28:47.348Z,0.47
2023-11-02T12:31:31.226Z,0.40
2023-11-02T12:34:03.301Z,1.98
2023-11-02T12:36:31.500Z,0.55
2023-11-02T12:39:00.698Z,0.57
2023-11-02T12:41:29.339Z,0.57
2023-11-02T12:44:05.495Z,0.73
2023-11-02T12:46:35.527Z,0.80
2023-11-02T12:49:20.473Z,0.32
2023-11-02T12:52:03.545Z,0.25
2023-11-02T12:54:34.078Z,0.52
2023-11-02T12:57:02.776Z,0.20
2023-11-02T12:59:36.990Z,0.28
2023-11-02T13:02:07.015Z,0.45
2023-11-02T13:04:52.444Z,0.20
2023-11-02T13:07:23.588Z,0.30
2023-11-02T13:10:02.746Z,0.95
2023-11-02T13:12:35.564Z,0.17
2023-11-02T13:15:06.731Z,0.38
2023-11-02T13:17:34.585Z,0.50
2023-11-02T13:20:04.329Z,1.65
2023-11-02T13:22:34.197Z,3.95
2023-11-02T13:25:03.407Z,1.40
2023-11-02T13:27:31.242Z,3.53
2023-11-02T13:30:00.629Z,1.50
2023-11-02T13:32:30.304Z,1.20
2023-11-02T13:34:58.338Z,1.30
2023-11-02T13:37:27.945Z,0.90
2023-11-02T13:39:58.354Z,2.17
2023-11-02T13:42:28.837Z,3.65
2023-11-02T13:44:57.022Z,4.45
2023-11-02T13:47:24.865Z,0.75
2023-11-02T13:49:52.636Z,1.27
2023-11-02T13:52:20.473Z,1.02
2023-11-02T13:54:50.581Z,2.05
2023-11-02T13:57:21.049Z,1.60
2023-11-02T13:59:50.318Z,1.98
2023-11-02T14:02:19.215Z,1.48
2023-11-02T14:04:49.312Z,1.65
2023-11-02T14:07:17.630Z,4.43
2023-11-02T14:09:47.760Z,5.47
2023-11-02T14:12:23.823Z,2.50
2023-11-02T14:14:53.532Z,5.63
2023-11-02T14:17:24.644Z,2.95
2023-11-02T14:19:52.654Z,3.15
2023-11-02T14:22:22.695Z,3.17
2023-11-02T14:24:54.026Z,3.75
2023-11-02T14:27:23.747Z,3.70
2023-11-02T14:29:53.070Z,15.75
2023-11-02T14:32:23.165Z,23.40
2023-11-02T14:34:53.517Z,10.35
2023-11-02T14:37:21.304Z,6.05
2023-11-02T14:39:49.329Z,7.82
2023-11-02T14:42:22.395Z,13.60
2023-11-02T14:44:50.241Z,9.68
2023-11-02T14:47:23.540Z,5.32
2023-11-02T14:49:51.337Z,3.75
2023-11-02T14:52:19.166Z,4.95
2023-11-02T14:54:53.345Z,6.57
2023-11-02T14:57:26.351Z,4.40
2023-11-02T14:59:54.273Z,2.55
2023-11-02T15:02:24.016Z,5.10
2023-11-02T15:04:53.116Z,3.20
2023-11-02T15:07:21.257Z,2.40
2023-11-02T15:09:49.076Z,3.50
2023-11-02T15:12:17.363Z,2.13
2023-11-02T15:14:45.500Z,3.83
2023-11-02T15:17:13.289Z,3.50
2023-11-02T15:19:43.089Z,3.80
2023-11-02T15:22:11.199Z,3.90
2023-11-02T15:24:38.935Z,3.90
2023-11-02T15:27:06.941Z,5.03
2023-11-02T15:29:36.165Z,3.13
2023-11-02T15:32:04.788Z,9.18
2023-11-02T15:34:33.549Z,34.55
2023-11-02T15:37:02.732Z,12.05
2023-11-02T15:39:31.269Z,3.03
2023-11-02T15:41:59.212Z,3.95
2023-11-02T15:44:27.051Z,4.03
2023-11-02T15:46:54.756Z,2.20
2023-11-02T15:49:22.541Z,2.20
2023-11-02T15:51:53.812Z,4.68
2023-11-02T15:54:23.138Z,2.50
2023-11-02T15:56:53.821Z,1.42
2023-11-02T15:59:21.553Z,3.25
2023-11-02T16:01:57.545Z,1.67
2023-11-02T16:04:33.081Z,2.15
2023-11-02T16:07:00.877Z,3.17
2023-11-02T16:09:30.112Z,2.17
2023-11-02T16:12:01.860Z,2.13
2023-11-02T16:14:30.292Z,2.28
2023-11-02T16:17:00.371Z,1.00
2023-11-02T16:19:30.650Z,1.70
2023-11-02T16:21:58.707Z,1.77
2023-11-02T16:24:26.637Z,1.70
2023-11-02T16:26:56.225Z,1.42
2023-11-02T16:29:24.372Z,1.17
2023-11-02T16:31:56.106Z,2.03
2023-11-02T16:34:35.707Z,1.85
2023-11-02T16:37:09.968Z,2.45
2023-11-02T16:39:37.718Z,2.65
2023-11-02T16:42:07.913Z,2.10
2023-11-02T16:44:35.923Z,2.35
2023-11-02T16:47:03.673Z,4.30
2023-11-02T16:49:31.608Z,2.70
2023-11-02T16:52:00.418Z,2.47
2023-11-02T16:54:30.620Z,5.45
2023-11-02T16:56:58.414Z,3.15
2023-11-02T16:59:27.492Z,1.13
2023-11-02T17:01:55.411Z,1.50
2023-11-02T17:04:23.291Z,1.65
2023-11-02T17:06:52.614Z,3.50
2023-11-02T17:09:20.501Z,47.88
2023-11-02T17:11:48.270Z,74.25
2023-11-02T17:14:16.037Z,95.70
2023-11-02T17:16:45.154Z,26.95
2023-11-02T17:19:12.940Z,51.47
2023-11-02T17:21:40.776Z,30.23
2023-11-02T17:24:08.915Z,17.42
2023-11-02T17:26:39.046Z,9.57
2023-11-02T17:29:06.807Z,4.95
2023-11-02T17:31:34.521Z,5.70
2023-11-02T17:34:04.326Z,5.45
2023-11-02T17:36:32.169Z,5.38
2023-11-02T17:39:02.856Z,3.85
2023-11-02T17:41:35.580Z,4.72
2023-11-02T17:44:05.861Z,5.15
2023-11-02T17:46:33.737Z,8.40
2023-11-02T17:49:01.530Z,4.88
2023-11-02T17:51:33.753Z,5.20
2023-11-02T17:54:04.341Z,3.25
2023-11-02T17:56:41.237Z,4.93
2023-11-02T17:59:11.283Z,5.38
2023-11-02T18:01:39.130Z,5.07
2023-11-02T18:04:09.403Z,4.10
2023-11-02T18:06:38.671Z,4.38
2023-11-02T18:09:06.647Z,5.10
2023-11-02T18:11:36.815Z,4.95
2023-11-02T18:14:06.713Z,5.35
2023-11-02T18:16:34.498Z,4.20
2023-11-02T18:19:02.293Z,4.40
2023-11-02T18:21:33.062Z,37.45
2023-11-02T18:24:02.181Z,33.63
2023-11-02T18:26:32.042Z,50.97
2023-11-02T18:29:00.103Z,31.77
2023-11-02T18:31:31.867Z,64.20
2023-11-02T18:33:59.993Z,14.95
2023-11-02T18:36:27.894Z,8.07
2023-11-02T18:38:55.653Z,52.13
2023-11-02T18:41:24.949Z,37.50
2023-11-02T18:43:54.087Z,16.48
2023-11-02T18:46:22.585Z,12.55
2023-11-02T18:48:53.493Z,14.50
2023-11-02T18:51:23.822Z,17.23
2023-11-02T18:53:51.636Z,9.70
2023-11-02T18:56:19.554Z,26.85
2023-11-02T18:58:48.758Z,17.73
2023-11-02T19:01:20.093Z,22.90
2023-11-02T19:03:50.928Z,16.88
2023-11-02T19:06:18.865Z,12.18
2023-11-02T19:08:51.108Z,11.98
2023-11-02T19:11:19.723Z,19.75
2023-11-02T19:13:50.069Z,15.90
2023-11-02T19:16:17.919Z,9.77
2023-11-02T19:18:45.733Z,10.05
2023-11-02T19:21:16.048Z,7.32
2023-11-02T19:23:45.375Z,7.03
2023-11-02T19:26:17.173Z,7.15
2023-11-02T19:28:47.231Z,45.35
2023-11-02T19:31:18.535Z,15.68
2023-11-02T19:33:49.154Z,8.27
2023-11-02T19:36:17.008Z,9.43
2023-11-02T19:38:44.747Z,9.73
2023-11-02T19:41:12.771Z,6.25
2023-11-02T19:43:42.505Z,15.98
2023-11-02T19:46:12.623Z,4.45
2023-11-02T19:48:42.430Z,6.53
2023-11-02T19:51:13.398Z,12.38
2023-11-02T19:53:41.144Z,26.42
2023-11-02T19:56:09.066Z,6.13
2023-11-02T19:58:39.396Z,3.72
2023-11-02T20:01:07.537Z,8.13
2023-11-02T20:03:37.859Z,6.50
2023-11-02T20:06:07.737Z,2.60
2023-11-02T20:08:35.520Z,3.30
2023-11-02T20:11:04.442Z,3.55
2023-11-02T20:13:32.397Z,2.83
2023-11-02T20:16:00.223Z,3.83
2023-11-02T20:18:28.479Z,3.72
2023-11-02T20:20:57.633Z,3.00
2023-11-02T20:23:26.807Z,5.53
2023-11-02T20:25:56.092Z,6.28
2023-11-02T20:28:24.174Z,4.78
2023-11-02T20:30:51.999Z,3.83
2023-11-02T20:33:19.762Z,6.25
2023-11-02T20:35:47.737Z,3.08
2023-11-02T20:38:15.515Z,3.47
2023-11-02T20:40:44.721Z,3.58
2023-11-02T20:43:14.837Z,4.78
2023-11-02T20:45:42.649Z,2.80
2023-11-02T20:48:10.425Z,4.18
2023-11-02T20:50:40.453Z,5.05
2023-11-02T20:53:08.291Z,3.13
2023-11-02T20:55:38.445Z,3.15
2023-11-02T20:58:07.594Z,4.68
2023-11-02T21:00:49.752Z,3.13
2023-11-02T21:03:21.106Z,3.00
2023-11-02T21:05:49.062Z,5.50
2023-11-02T21:08:16.837Z,2.85
2023-11-02T21:10:45.752Z,4.15
2023-11-02T21:13:14.866Z,3.38
2023-11-02T21:15:42.681Z,4.10
2023-11-02T21:18:11.483Z,3.08
2023-11-02T21:20:41.739Z,3.10
2023-11-02T21:23:09.483Z,4.38
2023-11-02T21:25:39.401Z,3.78
2023-11-02T21:28:07.297Z,4.10
2023-11-02T21:30:36.473Z,3.10
2023-11-02T21:33:04.371Z,2.53
2023-11-02T21:35:33.120Z,4.38
2023-11-02T21:38:03.185Z,3.00
2023-11-02T21:40:31.033Z,2.50
2023-11-02T21:42:58.841Z,2.75
2023-11-02T21:45:26.620Z,2.60
2023-11-02T21:47:59.274Z,2.60
2023-11-02T21:50:27.085Z,2.90
2023-11-02T21:52:57.163Z,2.45
2023-11-02T21:55:24.962Z,3.03
2023-11-02T21:57:55.576Z,2.80
2023-11-02T22:00:23.473Z,3.13
2023-11-02T22:02:51.273Z,4.20
2023-11-02T22:05:20.504Z,3.33
2023-11-02T22:07:50.521Z,3.67
2023-11-02T22:10:18.402Z,2.92
2023-11-02T22:12:46.784Z,2.97
2023-11-02T22:15:14.861Z,3.38
2023-11-02T22:17:42.655Z,2.58
2023-11-02T22:20:11.740Z,2.45
2023-11-02T22:22:40.948Z,2.22
2023-11-02T22:25:11.030Z,2.22
2023-11-02T22:27:38.944Z,3.00
2023-11-02T22:30:08.670Z,2.65
2023-11-02T22:32:37.299Z,2.50
2023-11-02T22:35:06.009Z,2.60
2023-11-02T22:37:33.763Z,3.03
2023-11-02T22:40:02.994Z,2.65
2023-11-02T22:42:33.120Z,3.08
2023-11-02T22:45:00.891Z,3.10
2023-11-02T22:47:28.631Z,3.25
2023-11-02T22:49:56.366Z,3.50
2023-11-02T22:52:24.149Z,3.72
2023-11-02T22:54:51.875Z,2.97
2023-11-02T22:57:21.077Z,2.40
2023-11-02T22:59:48.855Z,3.05
2023-11-02T23:02:16.770Z,2.20
2023-11-02T23:04:45.730Z,3.35
2023-11-02T23:07:13.595Z,3.90
2023-11-02T23:09:43.432Z,4.43
2023-11-02T23:12:11.201Z,2.47
2023-11-02T23:14:40.434Z,3.95
2023-11-02T23:17:11.428Z,3.92
2023-11-02T23:19:42.500Z,5.70
2023-11-02T23:22:10.304Z,48.50
2023-11-02T23:24:38.077Z,35.65
2023-11-02T23:27:05.824Z,12.70
2023-11-02T23:29:34.485Z,12.23
2023-11-02T23:32:03.572Z,10.70
2023-11-02T23:34:31.372Z,10.13
2023-11-02T23:37:00.336Z,11.55
2023-11-02T23:39:28.048Z,9.68
2023-11-02T23:41:55.847Z,4.40
2023-11-02T23:44:23.603Z,2.42
2023-11-02T23:46:52.521Z,3.47
2023-11-02T23:49:21.687Z,3.38
2023-11-02T23:51:49.509Z,3.92
2023-11-02T23:54:20.200Z,2.85
2023-11-02T23:56:48.069Z,2.80
2023-11-02T23:59:16.537Z,2.88
